createdAt,value
2019-02-24T00:01:18.311Z,-82
2019-02-24T00:03:47.801Z,-80
2019-02-24T00:06:17.373Z,-82
2019-02-24T00:08:46.910Z,-81
2019-02-24T00:11:16.389Z,-80
2019-02-24T00:13:45.874Z,-81
2019-02-24T00:16:16.999Z,-81
2019-02-24T00:18:46.527Z,-81
2019-02-24T00:21:16.032Z,-82
2019-02-24T00:23:45.527Z,-81
2019-02-24T00:26:15.028Z,-82
2019-02-24T00:28:44.574Z,-81
2019-02-24T00:31:14.110Z,-82
2019-02-24T00:33:43.575Z,-82
2019-02-24T00:36:13.040Z,-81
2019-02-24T00:38:42.546Z,-82
2019-02-24T00:41:12.040Z,-82
2019-02-24T00:43:41.513Z,-82
2019-02-24T00:46:11.006Z,-83
2019-02-24T00:48:41.427Z,-82
2019-02-24T00:51:10.924Z,-81
2019-02-24T00:53:42.367Z,-81
2019-02-24T00:56:11.899Z,-80
2019-02-24T00:58:41.370Z,-81
2019-02-24T01:01:10.889Z,-80
2019-02-24T01:03:40.497Z,-82
2019-02-24T01:06:10.058Z,-82
2019-02-24T01:08:39.556Z,-81
2019-02-24T01:11:09.016Z,-80
2019-02-24T01:13:38.504Z,-81
2019-02-24T01:16:07.971Z,-82
2019-02-24T01:18:37.483Z,-81
2019-02-24T01:21:26.322Z,-75
2019-02-24T01:24:15.162Z,-75
2019-02-24T01:27:03.956Z,-75
2019-02-24T01:29:52.783Z,-75
2019-02-24T01:32:41.634Z,-75
2019-02-24T01:35:30.463Z,-74
2019-02-24T01:38:19.307Z,-75
2019-02-24T01:41:08.136Z,-74
2019-02-24T01:43:56.964Z,-74
2019-02-24T01:46:45.759Z,-74
2019-02-24T01:49:34.578Z,-74
2019-02-24T01:52:23.501Z,-74
2019-02-24T01:55:12.338Z,-74
2019-02-24T01:58:01.201Z,-74
2019-02-24T02:00:50.049Z,-75
2019-02-24T02:03:32.192Z,-74
2019-02-24T02:06:21.019Z,-74
2019-02-24T02:09:10.001Z,-74
2019-02-24T02:11:58.878Z,-74
2019-02-24T02:14:47.725Z,-74
2019-02-24T02:17:36.507Z,-74
2019-02-24T02:20:25.362Z,-74
2019-02-24T02:23:06.940Z,-74
2019-02-24T02:25:55.766Z,-74
2019-02-24T02:28:44.600Z,-73
2019-02-24T02:31:33.454Z,-76
2019-02-24T02:34:22.276Z,-73
2019-02-24T02:37:11.109Z,-74
2019-02-24T02:39:59.930Z,-74
2019-02-24T02:42:48.764Z,-74
2019-02-24T02:45:37.605Z,-74
2019-02-24T02:48:07.075Z,-75
2019-02-24T02:50:36.531Z,-76
2019-02-24T02:53:06.000Z,-76
2019-02-24T02:55:35.491Z,-76
2019-02-24T02:58:04.949Z,-75
2019-02-24T03:00:38.426Z,-75
2019-02-24T03:03:07.924Z,-75
2019-02-24T03:05:37.379Z,-75
2019-02-24T03:08:11.094Z,-75
2019-02-24T03:10:40.550Z,-75
2019-02-24T03:13:10.030Z,-75
2019-02-24T03:15:39.503Z,-75
2019-02-24T03:18:08.961Z,-76
2019-02-24T03:20:38.454Z,-75
2019-02-24T03:23:07.948Z,-75
2019-02-24T03:25:37.440Z,-76
2019-02-24T03:28:06.919Z,-75
2019-02-24T03:30:36.422Z,-76
2019-02-24T03:33:06.032Z,-75
2019-02-24T03:35:35.473Z,-76
2019-02-24T03:38:04.964Z,-75
2019-02-24T03:40:35.191Z,-75
2019-02-24T03:43:04.677Z,-75
2019-02-24T03:45:34.160Z,-75
2019-02-24T03:48:03.639Z,-75
2019-02-24T03:50:33.148Z,-75
2019-02-24T03:53:02.625Z,-75
2019-02-24T03:55:32.222Z,-75
2019-02-24T03:58:01.787Z,-75
2019-02-24T04:00:31.398Z,-75
2019-02-24T04:03:00.879Z,-75
2019-02-24T04:05:30.343Z,-75
2019-02-24T04:07:59.833Z,-76
2019-02-24T04:10:29.328Z,-76
2019-02-24T04:12:58.853Z,-76
2019-02-24T04:15:28.944Z,-75
2019-02-24T04:17:58.442Z,-75
2019-02-24T04:20:27.936Z,-75
2019-02-24T04:22:57.393Z,-75
2019-02-24T04:25:26.849Z,-76
2019-02-24T04:27:56.426Z,-76
2019-02-24T04:30:25.955Z,-75
2019-02-24T04:32:55.483Z,-75
2019-02-24T04:35:24.974Z,-75
2019-02-24T04:37:54.517Z,-75
2019-02-24T04:40:23.953Z,-75
2019-02-24T04:42:53.420Z,-76
2019-02-24T04:45:22.913Z,-75
2019-02-24T04:47:52.358Z,-75
2019-02-24T04:50:21.876Z,-75
2019-02-24T04:52:51.345Z,-75
2019-02-24T04:55:20.796Z,-76
2019-02-24T04:57:50.363Z,-75
2019-02-24T05:00:19.826Z,-75
2019-02-24T05:02:49.334Z,-75
2019-02-24T05:05:18.805Z,-75
2019-02-24T05:07:48.275Z,-75
2019-02-24T05:10:17.796Z,-75
2019-02-24T05:12:47.227Z,-76
2019-02-24T05:15:16.800Z,-75
2019-02-24T05:17:46.266Z,-75
2019-02-24T05:20:15.825Z,-75
2019-02-24T05:22:45.290Z,-75
2019-02-24T05:25:14.795Z,-75
2019-02-24T05:27:44.245Z,-76
2019-02-24T05:30:13.792Z,-76
2019-02-24T05:32:43.282Z,-76
2019-02-24T05:35:32.119Z,-75
2019-02-24T05:38:01.623Z,-76
2019-02-24T05:40:31.068Z,-76
2019-02-24T05:43:00.633Z,-76
2019-02-24T05:45:30.116Z,-76
2019-02-24T05:47:59.581Z,-76
2019-02-24T05:50:29.066Z,-76
2019-02-24T05:52:58.508Z,-76
2019-02-24T05:55:28.169Z,-76
2019-02-24T05:57:57.649Z,-76
2019-02-24T06:00:27.134Z,-76
2019-02-24T06:02:56.614Z,-76
2019-02-24T06:05:26.078Z,-76
2019-02-24T06:07:55.575Z,-76
2019-02-24T06:10:25.023Z,-76
2019-02-24T06:12:54.528Z,-77
2019-02-24T06:15:24.069Z,-77
2019-02-24T06:17:53.525Z,-77
2019-02-24T06:20:23.000Z,-76
2019-02-24T06:22:52.482Z,-76
2019-02-24T06:25:21.966Z,-76
2019-02-24T06:27:51.468Z,-76
2019-02-24T06:30:21.009Z,-76
2019-02-24T06:32:50.490Z,-76
2019-02-24T06:35:19.951Z,-76
2019-02-24T06:37:49.443Z,-76
2019-02-24T06:40:18.926Z,-76
2019-02-24T06:42:48.414Z,-76
2019-02-24T06:45:17.895Z,-76
2019-02-24T06:47:47.347Z,-76
2019-02-24T06:50:16.853Z,-76
2019-02-24T06:52:46.324Z,-76
2019-02-24T06:55:15.780Z,-76
2019-02-24T06:57:45.295Z,-76
2019-02-24T07:00:14.820Z,-76
2019-02-24T07:02:44.324Z,-76
2019-02-24T07:05:13.773Z,-76
2019-02-24T07:07:43.271Z,-76
2019-02-24T07:10:12.743Z,-76
2019-02-24T07:12:42.208Z,-76
2019-02-24T07:15:11.784Z,-76
2019-02-24T07:17:41.283Z,-76
2019-02-24T07:20:11.818Z,-76
2019-02-24T07:22:41.307Z,-76
2019-02-24T07:25:10.834Z,-76
2019-02-24T07:27:40.326Z,-76
2019-02-24T07:30:11.051Z,-76
2019-02-24T07:32:40.563Z,-76
2019-02-24T07:35:10.092Z,-76
2019-02-24T07:37:39.578Z,-76
2019-02-24T07:40:09.094Z,-76
2019-02-24T07:42:38.556Z,-76
2019-02-24T07:45:09.298Z,-76
2019-02-24T07:47:38.780Z,-76
2019-02-24T07:50:10.034Z,-76
2019-02-24T07:52:39.478Z,-76
2019-02-24T07:55:09.056Z,-76
2019-02-24T07:57:38.526Z,-76
2019-02-24T08:00:11.334Z,-76
2019-02-24T08:02:40.828Z,-76
2019-02-24T08:05:10.376Z,-76
2019-02-24T08:07:39.875Z,-76
2019-02-24T08:10:09.476Z,-76
2019-02-24T08:12:38.953Z,-76
2019-02-24T08:15:10.145Z,-76
2019-02-24T08:17:39.630Z,-76
2019-02-24T08:20:10.234Z,-76
2019-02-24T08:22:39.733Z,-76
2019-02-24T08:25:09.342Z,-76
2019-02-24T08:27:38.819Z,-76
2019-02-24T08:30:12.078Z,-76
2019-02-24T08:32:41.663Z,-76
2019-02-24T08:35:11.223Z,-76
2019-02-24T08:37:40.722Z,-76
2019-02-24T08:40:10.642Z,-76
2019-02-24T08:42:40.129Z,-76
2019-02-24T08:45:10.850Z,-76
2019-02-24T08:47:40.458Z,-76
2019-02-24T08:50:12.770Z,-77
2019-02-24T08:52:42.344Z,-76
2019-02-24T08:55:11.863Z,-77
2019-02-24T08:57:41.362Z,-76
2019-02-24T09:00:14.432Z,-76
2019-02-24T09:02:43.934Z,-76
2019-02-24T09:05:13.484Z,-76
2019-02-24T09:07:43.003Z,-77
2019-02-24T09:10:12.469Z,-77
2019-02-24T09:12:42.036Z,-77
2019-02-24T09:15:13.815Z,-76
2019-02-24T09:17:43.315Z,-77
2019-02-24T09:20:13.888Z,-76
2019-02-24T09:22:43.606Z,-76
2019-02-24T09:25:13.190Z,-77
2019-02-24T09:27:42.765Z,-76
2019-02-24T09:30:14.079Z,-76
2019-02-24T09:32:43.639Z,-76
2019-02-24T09:35:13.295Z,-76
2019-02-24T09:37:42.798Z,-76
2019-02-24T09:40:13.238Z,-76
2019-02-24T09:42:42.762Z,-76
2019-02-24T09:45:13.453Z,-76
2019-02-24T09:47:46.702Z,-76
2019-02-24T09:50:14.221Z,-76
2019-02-24T09:52:43.707Z,-76
2019-02-24T09:55:13.284Z,-76
2019-02-24T09:57:42.775Z,-76
2019-02-24T10:00:14.883Z,-76
2019-02-24T10:02:44.417Z,-76
2019-02-24T10:05:13.923Z,-76
2019-02-24T10:07:43.436Z,-76
2019-02-24T10:10:13.907Z,-76
2019-02-24T10:12:43.543Z,-76
2019-02-24T10:15:16.479Z,-76
2019-02-24T10:17:46.054Z,-76
2019-02-24T10:20:15.613Z,-76
2019-02-24T10:22:45.073Z,-76
2019-02-24T10:25:14.806Z,-76
2019-02-24T10:27:44.443Z,-77
2019-02-24T10:30:16.040Z,-76
2019-02-24T10:32:45.618Z,-75
2019-02-24T10:35:15.198Z,-77
2019-02-24T10:37:44.687Z,-76
2019-02-24T10:40:16.892Z,-76
2019-02-24T10:42:46.405Z,-76
2019-02-24T10:45:20.048Z,-76
2019-02-24T10:47:49.515Z,-76
2019-02-24T10:50:19.208Z,-76
2019-02-24T10:52:48.711Z,-76
2019-02-24T10:55:18.166Z,-76
2019-02-24T10:57:47.686Z,-76
2019-02-24T11:00:19.255Z,-76
2019-02-24T11:02:48.732Z,-76
2019-02-24T11:05:18.330Z,-76
2019-02-24T11:07:47.819Z,-77
2019-02-24T11:10:17.395Z,-76
2019-02-24T11:12:46.874Z,-76
2019-02-24T11:15:16.447Z,-77
2019-02-24T11:17:45.984Z,-77
2019-02-24T11:20:18.069Z,-77
2019-02-24T11:22:47.606Z,-75
2019-02-24T11:25:17.140Z,-76
2019-02-24T11:27:46.647Z,-76
2019-02-24T11:30:16.609Z,-76
2019-02-24T11:32:46.069Z,-76
2019-02-24T11:35:15.574Z,-76
2019-02-24T11:37:45.967Z,-76
2019-02-24T11:40:17.843Z,-76
2019-02-24T11:42:47.464Z,-85
2019-02-24T11:45:17.199Z,-84
2019-02-24T11:47:46.847Z,-87
2019-02-24T11:50:16.522Z,-84
2019-02-24T11:52:46.102Z,-88
2019-02-24T11:55:15.712Z,-87
2019-02-24T11:57:45.224Z,-87
2019-02-24T12:00:16.503Z,-82
2019-02-24T12:02:46.159Z,-84
2019-02-24T12:05:15.855Z,-83
2019-02-24T12:07:45.471Z,-85
2019-02-24T12:10:34.432Z,-74
2019-02-24T12:13:23.330Z,-74
2019-02-24T12:16:12.181Z,-75
2019-02-24T12:19:00.993Z,-75
2019-02-24T12:21:49.817Z,-75
2019-02-24T12:24:38.717Z,-74
2019-02-24T12:27:27.660Z,-75
2019-02-24T12:33:45.574Z,-74
2019-02-24T12:36:34.421Z,-75
2019-02-24T12:39:23.280Z,-75
2019-02-24T12:42:12.139Z,-74
2019-02-24T12:45:00.981Z,-74
2019-02-24T12:50:59.208Z,-75
2019-02-24T12:53:39.071Z,-75
2019-02-24T12:56:27.933Z,-75
2019-02-24T12:59:16.739Z,-75
2019-02-24T13:02:06.077Z,-74
2019-02-24T13:04:56.277Z,-74
2019-02-24T13:07:45.109Z,-73
2019-02-24T13:10:33.931Z,-74
2019-02-24T13:13:22.782Z,-74
2019-02-24T13:16:11.684Z,-74
2019-02-24T13:19:00.698Z,-74
2019-02-24T13:21:49.513Z,-75
2019-02-24T13:24:38.428Z,-75
2019-02-24T13:27:27.246Z,-75
2019-02-24T13:30:37.104Z,-75
2019-02-24T13:33:25.932Z,-74
2019-02-24T13:39:29.889Z,-74
2019-02-24T13:42:18.804Z,-74
2019-02-24T13:45:27.008Z,-74
2019-02-24T13:48:15.894Z,-75
2019-02-24T13:51:04.772Z,-75
2019-02-24T13:53:46.465Z,-76
2019-02-24T13:56:35.317Z,-75
2019-02-24T13:59:24.167Z,-75
2019-02-24T14:02:13.086Z,-75
2019-02-24T14:05:01.987Z,-76
2019-02-24T14:07:50.842Z,-75
2019-02-24T14:10:39.949Z,-74
2019-02-24T14:13:28.812Z,-75
2019-02-24T14:16:17.734Z,-75
2019-02-24T14:19:06.660Z,-75
2019-02-24T14:21:55.547Z,-74
2019-02-24T14:24:44.501Z,-76
2019-02-24T14:27:33.431Z,-76
2019-02-24T14:30:22.346Z,-75
2019-02-24T14:33:11.175Z,-75
2019-02-24T14:36:00.104Z,-75
2019-02-24T14:38:48.984Z,-75
2019-02-24T14:41:37.825Z,-75
2019-02-24T14:44:26.768Z,-75
2019-02-24T14:47:15.711Z,-75
2019-02-24T14:53:12.710Z,-75
2019-02-24T14:56:01.630Z,-74
2019-02-24T14:58:50.554Z,-74
2019-02-24T15:01:39.407Z,-74
2019-02-24T15:04:28.284Z,-75
2019-02-24T15:07:17.221Z,-75
2019-02-24T15:10:26.983Z,-74
2019-02-24T15:13:15.818Z,-76
2019-02-24T15:16:04.753Z,-75
2019-02-24T15:18:53.725Z,-75
2019-02-24T15:21:42.680Z,-74
2019-02-24T15:24:31.537Z,-75
2019-02-24T15:27:20.386Z,-75
2019-02-24T15:30:30.262Z,-74
2019-02-24T15:33:19.063Z,-74
2019-02-24T15:36:07.976Z,-74
2019-02-24T15:38:56.883Z,-76
2019-02-24T15:41:45.685Z,-75
2019-02-24T15:44:15.200Z,-75
2019-02-24T15:47:04.194Z,-75
2019-02-24T15:49:53.104Z,-74
2019-02-24T15:52:42.004Z,-75
2019-02-24T15:55:51.741Z,-75
2019-02-24T15:58:33.781Z,-74
2019-02-24T16:01:22.746Z,-75
2019-02-24T16:04:11.602Z,-75
2019-02-24T16:07:00.501Z,-75
2019-02-24T16:09:49.387Z,-75
2019-02-24T16:12:38.315Z,-74
2019-02-24T16:18:56.201Z,-74
2019-02-24T16:21:45.069Z,-74
2019-02-24T16:24:33.919Z,-74
2019-02-24T16:27:22.779Z,-75
2019-02-24T16:30:31.013Z,-74
2019-02-24T16:33:19.876Z,-75
2019-02-24T16:36:08.766Z,-75
2019-02-24T16:38:57.695Z,-74
2019-02-24T16:41:46.648Z,-74
2019-02-24T16:44:35.574Z,-74
2019-02-24T16:47:24.519Z,-75
2019-02-24T16:50:33.714Z,-75
2019-02-24T16:53:15.380Z,-75
2019-02-24T16:56:04.366Z,-75
2019-02-24T16:58:53.305Z,-75
2019-02-24T17:01:42.206Z,-75
2019-02-24T17:04:31.076Z,-74
2019-02-24T17:07:19.906Z,-75
2019-02-24T17:10:29.698Z,-75
2019-02-24T17:13:18.525Z,-75
2019-02-24T17:16:07.358Z,-75
2019-02-24T17:18:56.291Z,-74
2019-02-24T17:21:45.166Z,-75
2019-02-24T17:24:34.085Z,-75
2019-02-24T17:27:23.031Z,-74
2019-02-24T17:30:31.162Z,-74
2019-02-24T17:33:29.543Z,-75
2019-02-24T17:36:10.811Z,-74
2019-02-24T17:38:59.819Z,-74
2019-02-24T17:41:48.676Z,-74
2019-02-24T17:44:37.705Z,-74
2019-02-24T17:47:26.583Z,-75
2019-02-24T17:50:36.332Z,-74
2019-02-24T17:53:18.032Z,-74
2019-02-24T17:56:06.952Z,-74
2019-02-24T17:58:55.788Z,-75
2019-02-24T18:01:44.740Z,-74
2019-02-24T18:04:33.596Z,-75
2019-02-24T18:07:22.456Z,-75
2019-02-24T18:13:20.542Z,-74
2019-02-24T18:15:50.086Z,-74
2019-02-24T18:18:39.024Z,-74
2019-02-24T18:21:27.896Z,-75
2019-02-24T18:24:16.753Z,-74
2019-02-24T18:27:05.571Z,-73
2019-02-24T18:29:54.420Z,-74
2019-02-24T18:32:43.323Z,-74
2019-02-24T18:35:32.329Z,-74
2019-02-24T18:38:21.189Z,-74
2019-02-24T18:41:10.052Z,-74
2019-02-24T18:43:58.860Z,-74
2019-02-24T18:46:47.691Z,-73
2019-02-24T18:49:36.685Z,-74
2019-02-24T18:52:25.617Z,-74
2019-02-24T18:55:08.323Z,-75
2019-02-24T18:57:57.268Z,-75
2019-02-24T19:00:46.108Z,-75
2019-02-24T19:03:35.040Z,-75
2019-02-24T19:06:23.891Z,-75
2019-02-24T19:09:12.721Z,-75
2019-02-24T19:12:01.655Z,-74
2019-02-24T19:14:50.620Z,-75
2019-02-24T19:17:39.560Z,-74
2019-02-24T19:23:56.848Z,-75
2019-02-24T19:26:45.733Z,-75
2019-02-24T19:29:34.606Z,-75
2019-02-24T19:35:51.825Z,-75
2019-02-24T19:38:40.784Z,-77
2019-02-24T19:41:29.689Z,-75
2019-02-24T19:44:18.534Z,-75
2019-02-24T19:47:07.446Z,-75
2019-02-24T19:49:56.289Z,-75
2019-02-24T19:52:45.204Z,-75
2019-02-24T19:55:27.361Z,-75
2019-02-24T19:58:16.317Z,-74
2019-02-24T20:01:05.343Z,-74
2019-02-24T20:03:54.188Z,-76
2019-02-24T20:06:43.144Z,-76
2019-02-24T20:09:32.050Z,-76
2019-02-24T20:12:20.898Z,-75
2019-02-24T20:15:29.111Z,-75
2019-02-24T20:18:17.967Z,-76
2019-02-24T20:21:07.975Z,-76
2019-02-24T20:23:57.462Z,-76
2019-02-24T20:26:46.322Z,-75
2019-02-24T20:29:35.167Z,-77
2019-02-24T20:32:23.978Z,-77
2019-02-24T20:35:06.136Z,-77
2019-02-24T20:37:55.103Z,-77
2019-02-24T20:40:44.026Z,-75
2019-02-24T20:43:32.851Z,-75
2019-02-24T20:46:21.772Z,-75
2019-02-24T20:49:10.635Z,-75
2019-02-24T20:51:59.579Z,-75
2019-02-24T20:54:48.377Z,-75
2019-02-24T20:57:37.314Z,-75
2019-02-24T21:00:47.052Z,-75
2019-02-24T21:03:35.893Z,-75
2019-02-24T21:06:24.799Z,-75
2019-02-24T21:09:13.704Z,-75
2019-02-24T21:12:02.562Z,-75
2019-02-24T21:14:44.586Z,-75
2019-02-24T21:17:33.482Z,-75
2019-02-24T21:20:43.216Z,-75
2019-02-24T21:23:32.115Z,-74
2019-02-24T21:26:20.947Z,-75
2019-02-24T21:29:09.792Z,-75
2019-02-24T21:31:51.615Z,-75
2019-02-24T21:34:40.475Z,-74
2019-02-24T21:37:29.284Z,-75
2019-02-24T21:43:33.284Z,-74
2019-02-24T21:46:22.152Z,-75
2019-02-24T21:49:11.023Z,-74
2019-02-24T21:51:59.814Z,-74
2019-02-24T21:54:48.676Z,-75
2019-02-24T21:57:30.745Z,-76
2019-02-24T22:00:39.152Z,-74
2019-02-24T22:03:28.084Z,-76
2019-02-24T22:06:16.906Z,-76
2019-02-24T22:09:26.673Z,-76
2019-02-24T22:12:15.525Z,-76
2019-02-24T22:15:25.261Z,-75
2019-02-24T22:18:14.122Z,-75
2019-02-24T22:21:03.046Z,-75
2019-02-24T22:23:51.944Z,-75
2019-02-24T22:26:40.862Z,-75
2019-02-24T22:29:22.299Z,-75
2019-02-24T22:32:11.216Z,-75
2019-02-24T22:35:00.032Z,-75
2019-02-24T22:37:48.988Z,-75
2019-02-24T22:40:37.827Z,-75
2019-02-24T22:43:26.684Z,-75
2019-02-24T22:46:15.530Z,-74
2019-02-24T22:49:04.449Z,-74
2019-02-24T22:51:53.327Z,-75
2019-02-24T22:54:42.325Z,-75
2019-02-24T22:57:24.217Z,-74
2019-02-24T23:00:07.241Z,-74
2019-02-24T23:02:56.225Z,-74
2019-02-24T23:05:45.228Z,-74
2019-02-24T23:08:34.037Z,-74
2019-02-24T23:11:22.883Z,-74
2019-02-24T23:14:11.809Z,-74
2019-02-24T23:17:00.627Z,-76
2019-02-24T23:19:49.462Z,-76
2019-02-24T23:22:38.259Z,-76
2019-02-24T23:25:27.198Z,-76
2019-02-24T23:28:15.995Z,-76
2019-02-24T23:31:04.906Z,-75
2019-02-24T23:33:53.713Z,-75
2019-02-24T23:36:42.640Z,-75
2019-02-24T23:39:31.535Z,-75
2019-02-24T23:42:20.312Z,-75
2019-02-24T23:48:24.990Z,-74
2019-02-24T23:51:13.806Z,-74
2019-02-24T23:54:02.716Z,-74
2019-02-24T23:56:44.086Z,-74
2019-02-24T23:59:32.932Z,-75
